Monday, September 24, 2018, 9:52 PM GMT
Back to Local

CWST, La Pocatiere

Location: , , Canada Lat: 47.35
Local Time: 9:52 PM GMT (21:52 GMT) Lon: -70.033
Time Zone: GMT Elev: 101 ft

Show me the last for .
Show Coded

Time T Td Feel RH Dir Speed Gust Alt SLP Vis Weather Sky Remarks
2018-09-24 21:00 50 30 48 46 320° 5 - - 30.60 0 None
2018-09-24 20:00 51 33 - 49 310° 7 - - 30.60 0 None
2018-09-24 19:00 51 30 - 44 330° 7 - - 30.61 0 None
2018-09-24 18:00 50 28 48 42 320° 6 - - 30.64 0 None
2018-09-24 17:00 50 28 - 42 280° 2 - - 30.65 0 None
2018-09-24 16:00 47 31 46 51 360° 3 - - 30.66 0 None
2018-09-24 15:00 46 32 45 57 50° 3 - - 30.68 0 None
2018-09-24 14:00 44 32 41 63 40° 5 - - 30.68 0 None
2018-09-24 13:00 41 32 39 69 100° 3 - - 30.67 0 None
2018-09-24 12:00 33 29 27 85 120° 7 - - 30.65 0 None
2018-09-24 11:00 28 26 23 90 110° 5 - - 30.63 0 None
2018-09-24 10:00 28 26 22 90 90° 6 - - 30.60 0 None
2018-09-24 09:00 28 26 24 92 120° 3 - - 30.57 0 None
2018-09-24 08:00 28 26 25 89 120° 3 - - 30.55 0 None
2018-09-24 07:00 29 26 25 87 120° 5 - - 30.53 0 None
2018-09-24 06:00 30 27 25 88 120° 5 - - 30.51 0 None
2018-09-24 05:00 32 29 26 87 110° 6 - - 30.48 0 None
2018-09-24 04:00 31 28 - 86 110° 2 - - 30.47 0 None
2018-09-24 03:00 32 28 - 85 110° 2 - - 30.45 0 None
2018-09-24 02:00 34 29 28 82 120° 6 - - 30.43 0 None
2018-09-24 01:00 36 28 - 71 40° 1 - - 30.40 0 None
2018-09-24 00:00 44 26 41 50 320° 5 - - 30.38 0 None
2018-09-23 23:00 45 26 40 47 320° 8 - - 30.34 0 None
2018-09-23 22:00 46 26 42 45 340° 8 - - 30.31 0 None

Support USWX by starting your Amazon purchase here.